Ginga — JJ4054 — position and weather

sailwx.info

Track history (hours):
 
Tides and Currents Weather Stations Pressure Air Temp Water Temp Dewpoint Dewpoint Depression Visibility Wind Speed Wind Dir Waves Ship Positions

Ginga

Last reported at 2017-Nov-19 21:20 UTC. Time now 2017-Nov-20 23:08 UTC.
Position N 34°38' E 135°03'.

Length 28 m; draft 1.6 m.

Type: Other ship. MMSI: 431301704.

Date/timePositionNaut miles runAvg speedWind from/ knotsBaromVisibWave heightAir tempDewpointWater temp
2017-Nov-19 21:20N 34°38' E 135°03'513.3
2017-Nov-19 21:00N 34°38' E 134°57'4 8.1
2017-Nov-19 20:30N 34°37' E 135°02'4 8.0
2017-Nov-19 20:00N 34°35' E 135°07'3 6.1
2017-Nov-19 19:30N 34°37' E 135°09'2 3.5
2017-Nov-19 19:01N 34°39' E 135°09'0 0.0
2017-Nov-19 03:16N 34°39' E 135°10'413.8
2017-Nov-19 03:01N 34°37' E 135°13'5 9.8
2017-Nov-19 02:30N 34°34' E 135°18'1 1.1
2017-Nov-19 02:00N 34°34' E 135°19'5 7.9
2017-Nov-19 01:19N 34°33' E 135°25'1 3.4
2017-Nov-19 00:59N 34°34' E 135°24'5 8.8
2017-Nov-19 00:27N 34°33' E 135°18'1 2.2
2017-Nov-19 00:00N 34°33' E 135°17'611.3
2017-Nov-18 23:30N 34°29' E 135°12'14 5.4
2017-Nov-18 20:54N 34°20' E 134°59'716.2
2017-Nov-18 20:29N 34°26' E 135°02'816.7
2017-Nov-18 20:01N 34°33' E 135°06'713.5
2017-Nov-18 19:30N 34°39' E 135°10'0 0.9
2017-Nov-18 19:00N 34°39' E 135°09'0 0.0
2017-Nov-17 03:06N 34°39' E 135°09'0 4.7
2017-Nov-17 03:00N 34°39' E 135°10'916.9
2017-Nov-17 02:30N 34°35' E 135°19'2 1.7
2017-Nov-17 01:11N 34°33' E 135°19'2 9.0
2017-Nov-17 01:00N 34°33' E 135°17'713.9
2017-Nov-17 00:30N 34°36' E 135°09'5 0.7
2017-Nov-16 16:42N 34°38' E 135°03'314.2
2017-Nov-16 16:28N 34°38' E 134°59'2 4.7
2017-Nov-16 16:00N 34°37' E 135°02'4 8.8
2017-Nov-16 15:30N 34°35' E 135°06'3 6.3
2017-Nov-16 15:00N 34°37' E 135°09'2 3.7
2017-Nov-16 14:29N 34°39' E 135°09'0 0.0
2017-Nov-16 04:06N 34°39' E 135°09'0 4.7
2017-Nov-16 04:00N 34°39' E 135°10'8 8.0
2017-Nov-16 03:03N 34°37' E 135°01'112.4
2017-Nov-16 03:00N 34°37' E 135°02'5 8.9
2017-Nov-16 02:30N 34°35' E 135°07'4 0.8
2017-Nov-15 21:31N 34°38' E 135°03'0 0.0
2017-Nov-15 21:30N 34°38' E 135°03'610.2
2017-Nov-15 20:55N 34°37' E 134°56'512.1
2017-Nov-15 20:30N 34°37' E 135°02'5 9.4
2017-Nov-15 20:01N 34°35' E 135°07'4 8.1
2017-Nov-15 19:30N 34°39' E 135°10'1 1.3
2017-Nov-15 19:00N 34°39' E 135°09'0 0.0
2017-Nov-15 07:21N 34°39' E 135°09'410.8
2017-Nov-15 06:59N 34°36' E 135°07'5 3.7
2017-Nov-15 05:34N 34°37' E 135°00'0 1.6
2017-Nov-15 05:18N 34°36' E 135°01'0 0.2
2017-Nov-15 04:50N 34°36' E 135°01'3 7.9
2017-Nov-15 04:30N 34°35' E 135°03'2 0.4
2017-Nov-14 22:28N 34°38' E 135°03'3 6.9
2017-Nov-14 22:00N 34°38' E 134°59'611.9
2017-Nov-14 21:30N 34°35' E 135°06'4 7.3
2017-Nov-14 21:00N 34°38' E 135°09'1 2.7
2017-Nov-14 20:30N 34°39' E 135°09'0 0.0
2017-Nov-14 06:21N 34°39' E 135°09'513.3
2017-Nov-14 06:00N 34°37' E 135°14'5 2.5
2017-Nov-14 04:07N 34°33' E 135°17'2 7.3
2017-Nov-14 03:50N 34°33' E 135°15'515.5
2017-Nov-14 03:30N 34°35' E 135°09'4 0.1
2017-Nov-12 21:14N 34°39' E 135°10'314.1
2017-Nov-12 21:01N 34°38' E 135°06'611.6
2017-Nov-12 20:29N 34°38' E 134°59'510.7
2017-Nov-12 20:00N 34°36' E 135°05'4 7.5
2017-Nov-12 19:30N 34°37' E 135°09'2 3.8
2017-Nov-12 19:00N 34°39' E 135°09'0 0.0
2017-Nov-12 18:30N 34°39' E 135°09'0 0.0
2017-Nov-12 01:45N 34°39' E 135°10'414.5
2017-Nov-12 01:30N 34°37' E 135°06'712.2
2017-Nov-12 00:58N 34°37' E 134°58'510.7
2017-Nov-12 00:30N 34°36' E 135°04'3 7.0
2017-Nov-12 00:00N 34°34' E 135°08'5 9.5
2017-Nov-11 23:30N 34°38' E 135°03'0 0.0
2017-Nov-11 23:00N 34°38' E 135°03'0 0.0
2017-Nov-11 20:22N 34°38' E 135°03'514.6
2017-Nov-11 20:00N 34°37' E 134°57'5 9.4
2017-Nov-11 19:30N 34°37' E 135°02'4 8.1
2017-Nov-11 19:00N 34°34' E 135°06'4 7.6
2017-Nov-11 18:30N 34°37' E 135°09'2 4.1
2017-Nov-11 18:00N 34°39' E 135°09'0 0.0
2017-Nov-11 11:25N 34°39' E 135°10'614.5
2017-Nov-11 11:00N 34°35' E 135°04'7 9.4
2017-Nov-11 10:15N 34°36' E 134°56'2 7.1
2017-Nov-11 09:56N 34°37' E 134°58'613.3
2017-Nov-11 09:30N 34°37' E 135°05'4 8.0
2017-Nov-11 09:00N 34°39' E 135°09'0 0.0
2017-Nov-11 08:29N 34°39' E 135°09'0 0.0
2017-Nov-11 08:00N 34°39' E 135°09'0 0.0
2017-Nov-10 03:57N 34°39' E 135°09'812.0
2017-Nov-10 03:15N 34°38' E 134°59'1 3.3
2017-Nov-10 02:58N 34°37' E 134°59'511.7
2017-Nov-10 02:30N 34°35' E 135°05'4 8.3
2017-Nov-10 02:00N 34°37' E 135°09'  
Track history (hours):
 
Tides and Currents Weather Stations Pressure Air Temp Water Temp Dewpoint Dewpoint Depression Visibility Wind Speed Wind Dir Waves Ship Positions

Ginga

Last reported at 2017-Nov-19 21:20 UTC. Time now 2017-Nov-20 23:08 UTC.
Position N 34°38' E 135°03'.

Length 28 m; draft 1.6 m.

Type: Other ship. MMSI: 431301704.

Date/timePositionNaut miles runAvg speedWind from/ knotsBaromVisibWave heightAir tempDewpointWater temp
2017-Nov-19 21:20N 34°38' E 135°03'513.3
2017-Nov-19 21:00N 34°38' E 134°57'4 8.1
2017-Nov-19 20:30N 34°37' E 135°02'4 8.0
2017-Nov-19 20:00N 34°35' E 135°07'3 6.1
2017-Nov-19 19:30N 34°37' E 135°09'2 3.5
2017-Nov-19 19:01N 34°39' E 135°09'0 0.0
2017-Nov-19 03:16N 34°39' E 135°10'413.8
2017-Nov-19 03:01N 34°37' E 135°13'5 9.8
2017-Nov-19 02:30N 34°34' E 135°18'1 1.1
2017-Nov-19 02:00N 34°34' E 135°19'5 7.9
2017-Nov-19 01:19N 34°33' E 135°25'1 3.4
2017-Nov-19 00:59N 34°34' E 135°24'5 8.8
2017-Nov-19 00:27N 34°33' E 135°18'1 2.2
2017-Nov-19 00:00N 34°33' E 135°17'611.3
2017-Nov-18 23:30N 34°29' E 135°12'14 5.4
2017-Nov-18 20:54N 34°20' E 134°59'716.2
2017-Nov-18 20:29N 34°26' E 135°02'816.7
2017-Nov-18 20:01N 34°33' E 135°06'713.5
2017-Nov-18 19:30N 34°39' E 135°10'0 0.9
2017-Nov-18 19:00N 34°39' E 135°09'0 0.0
2017-Nov-17 03:06N 34°39' E 135°09'0 4.7
2017-Nov-17 03:00N 34°39' E 135°10'916.9
2017-Nov-17 02:30N 34°35' E 135°19'2 1.7
2017-Nov-17 01:11N 34°33' E 135°19'2 9.0
2017-Nov-17 01:00N 34°33' E 135°17'713.9
2017-Nov-17 00:30N 34°36' E 135°09'5 0.7
2017-Nov-16 16:42N 34°38' E 135°03'314.2
2017-Nov-16 16:28N 34°38' E 134°59'2 4.7
2017-Nov-16 16:00N 34°37' E 135°02'4 8.8
2017-Nov-16 15:30N 34°35' E 135°06'3 6.3
2017-Nov-16 15:00N 34°37' E 135°09'2 3.7
2017-Nov-16 14:29N 34°39' E 135°09'0 0.0
2017-Nov-16 04:06N 34°39' E 135°09'0 4.7
2017-Nov-16 04:00N 34°39' E 135°10'8 8.0
2017-Nov-16 03:03N 34°37' E 135°01'112.4
2017-Nov-16 03:00N 34°37' E 135°02'5 8.9
2017-Nov-16 02:30N 34°35' E 135°07'4 0.8
2017-Nov-15 21:31N 34°38' E 135°03'0 0.0
2017-Nov-15 21:30N 34°38' E 135°03'610.2
2017-Nov-15 20:55N 34°37' E 134°56'512.1
2017-Nov-15 20:30N 34°37' E 135°02'5 9.4
2017-Nov-15 20:01N 34°35' E 135°07'4 8.1
2017-Nov-15 19:30N 34°39' E 135°10'1 1.3
2017-Nov-15 19:00N 34°39' E 135°09'0 0.0
2017-Nov-15 07:21N 34°39' E 135°09'410.8
2017-Nov-15 06:59N 34°36' E 135°07'5 3.7
2017-Nov-15 05:34N 34°37' E 135°00'0 1.6
2017-Nov-15 05:18N 34°36' E 135°01'0 0.2
2017-Nov-15 04:50N 34°36' E 135°01'3 7.9
2017-Nov-15 04:30N 34°35' E 135°03'2 0.4
2017-Nov-14 22:28N 34°38' E 135°03'3 6.9
2017-Nov-14 22:00N 34°38' E 134°59'611.9
2017-Nov-14 21:30N 34°35' E 135°06'4 7.3
2017-Nov-14 21:00N 34°38' E 135°09'1 2.7
2017-Nov-14 20:30N 34°39' E 135°09'0 0.0
2017-Nov-14 06:21N 34°39' E 135°09'513.3
2017-Nov-14 06:00N 34°37' E 135°14'5 2.5
2017-Nov-14 04:07N 34°33' E 135°17'2 7.3
2017-Nov-14 03:50N 34°33' E 135°15'515.5
2017-Nov-14 03:30N 34°35' E 135°09'4 0.1
2017-Nov-12 21:14N 34°39' E 135°10'314.1
2017-Nov-12 21:01N 34°38' E 135°06'611.6
2017-Nov-12 20:29N 34°38' E 134°59'510.7
2017-Nov-12 20:00N 34°36' E 135°05'4 7.5
2017-Nov-12 19:30N 34°37' E 135°09'2 3.8
2017-Nov-12 19:00N 34°39' E 135°09'0 0.0
2017-Nov-12 18:30N 34°39' E 135°09'0 0.0
2017-Nov-12 01:45N 34°39' E 135°10'414.5
2017-Nov-12 01:30N 34°37' E 135°06'712.2
2017-Nov-12 00:58N 34°37' E 134°58'510.7
2017-Nov-12 00:30N 34°36' E 135°04'3 7.0
2017-Nov-12 00:00N 34°34' E 135°08'5 9.5
2017-Nov-11 23:30N 34°38' E 135°03'0 0.0
2017-Nov-11 23:00N 34°38' E 135°03'0 0.0
2017-Nov-11 20:22N 34°38' E 135°03'514.6
2017-Nov-11 20:00N 34°37' E 134°57'5 9.4
2017-Nov-11 19:30N 34°37' E 135°02'4 8.1
2017-Nov-11 19:00N 34°34' E 135°06'4 7.6
2017-Nov-11 18:30N 34°37' E 135°09'2 4.1
2017-Nov-11 18:00N 34°39' E 135°09'0 0.0
2017-Nov-11 11:25N 34°39' E 135°10'614.5
2017-Nov-11 11:00N 34°35' E 135°04'7 9.4
2017-Nov-11 10:15N 34°36' E 134°56'2 7.1
2017-Nov-11 09:56N 34°37' E 134°58'613.3
2017-Nov-11 09:30N 34°37' E 135°05'4 8.0
2017-Nov-11 09:00N 34°39' E 135°09'0 0.0
2017-Nov-11 08:29N 34°39' E 135°09'0 0.0
2017-Nov-11 08:00N 34°39' E 135°09'0 0.0
2017-Nov-10 03:57N 34°39' E 135°09'812.0
2017-Nov-10 03:15N 34°38' E 134°59'1 3.3
2017-Nov-10 02:58N 34°37' E 134°59'511.7
2017-Nov-10 02:30N 34°35' E 135°05'4 8.3
2017-Nov-10 02:00N 34°37' E 135°09'  

Dump ship's entire track history